createdAt,value
2018-09-13T00:01:45.013Z,42.60
2018-09-13T00:04:13.454Z,43.80
2018-09-13T00:06:41.661Z,43.70
2018-09-13T00:09:10.300Z,44.10
2018-09-13T00:11:38.612Z,45.30
2018-09-13T00:14:07.225Z,45.20
2018-09-13T00:16:35.497Z,46.50
2018-09-13T00:19:03.709Z,47.30
2018-09-13T00:21:31.913Z,47.50
2018-09-13T00:24:00.115Z,48.00
2018-09-13T00:26:28.561Z,47.90
2018-09-13T00:28:56.775Z,47.70
2018-09-13T00:31:25.013Z,47.70
2018-09-13T00:33:53.247Z,48.60
2018-09-13T00:36:21.677Z,48.90
2018-09-13T00:38:49.965Z,48.50
2018-09-13T00:41:18.237Z,48.40
2018-09-13T00:43:46.557Z,48.10
2018-09-13T00:46:14.861Z,47.90
2018-09-13T00:48:43.141Z,46.90
2018-09-13T00:51:11.365Z,47.50
2018-09-13T00:53:39.565Z,46.90
2018-09-13T00:56:08.192Z,47.20
2018-09-13T00:58:36.645Z,47.00
2018-09-13T01:01:05.582Z,47.60
2018-09-13T01:03:33.797Z,47.40
2018-09-13T01:06:02.007Z,47.70
2018-09-13T01:08:30.404Z,47.10
2018-09-13T01:10:58.688Z,47.50
2018-09-13T01:13:26.918Z,46.30
2018-09-13T01:15:55.210Z,46.30
2018-09-13T01:18:23.442Z,47.30
2018-09-13T01:20:51.963Z,47.00
2018-09-13T01:23:20.330Z,47.30
2018-09-13T01:25:48.787Z,47.50
2018-09-13T01:28:16.981Z,46.70
2018-09-13T01:30:45.165Z,47.00
2018-09-13T01:33:13.510Z,46.80
2018-09-13T01:35:41.760Z,47.40
2018-09-13T01:38:10.071Z,48.10
2018-09-13T01:40:38.317Z,48.20
2018-09-13T01:43:06.732Z,47.80
2018-09-13T01:45:35.173Z,47.50
2018-09-13T01:48:03.370Z,47.50
2018-09-13T01:50:31.585Z,47.00
2018-09-13T01:52:59.877Z,47.30
2018-09-13T01:55:28.184Z,47.30
2018-09-13T01:57:56.365Z,47.40
2018-09-13T02:00:24.573Z,47.10
2018-09-13T02:02:53.066Z,47.40
2018-09-13T02:05:21.354Z,47.80
2018-09-13T02:07:49.610Z,48.30
2018-09-13T02:10:17.793Z,48.50
2018-09-13T02:12:46.070Z,47.30
2018-09-13T02:15:14.516Z,48.70
2018-09-13T02:17:42.866Z,48.10
2018-09-13T02:20:11.089Z,47.60
2018-09-13T02:22:39.703Z,47.90
2018-09-13T02:25:08.101Z,48.50
2018-09-13T02:27:36.353Z,48.80
2018-09-13T02:30:05.025Z,48.50
2018-09-13T02:32:33.445Z,48.60
2018-09-13T02:35:01.690Z,48.80
2018-09-13T02:37:30.017Z,48.50
2018-09-13T02:39:58.379Z,48.40
2018-09-13T02:42:26.590Z,47.70
2018-09-13T02:44:54.806Z,46.90
2018-09-13T02:47:23.029Z,47.80
2018-09-13T02:49:51.522Z,47.90
2018-09-13T02:52:19.764Z,48.50
2018-09-13T02:54:47.982Z,47.50
2018-09-13T02:57:16.305Z,48.00
2018-09-13T02:59:44.546Z,47.60
2018-09-13T03:02:13.062Z,47.40
2018-09-13T03:04:41.501Z,47.00
2018-09-13T03:07:09.694Z,46.60
2018-09-13T03:09:38.154Z,47.10
2018-09-13T03:12:06.614Z,47.40
2018-09-13T03:14:34.931Z,48.60
2018-09-13T03:17:03.109Z,47.90
2018-09-13T03:19:31.354Z,47.70
2018-09-13T03:21:59.746Z,48.20
2018-09-13T03:24:28.241Z,48.00
2018-09-13T03:26:56.534Z,47.20
2018-09-13T03:29:24.762Z,47.60
2018-09-13T03:31:53.189Z,47.80
2018-09-13T03:34:21.525Z,48.60
2018-09-13T03:36:49.950Z,48.10
2018-09-13T03:39:18.169Z,47.50
2018-09-13T03:41:46.395Z,48.00
2018-09-13T03:44:14.733Z,47.40
2018-09-13T03:46:43.122Z,46.90
2018-09-13T03:49:11.361Z,46.70
2018-09-13T03:51:39.593Z,47.20
2018-09-13T03:54:07.813Z,48.00
2018-09-13T03:56:36.098Z,48.30
2018-09-13T03:59:04.506Z,48.30
2018-09-13T04:01:32.677Z,47.70
2018-09-13T04:04:00.994Z,48.30
2018-09-13T04:06:29.509Z,48.30
2018-09-13T04:08:57.774Z,48.50
2018-09-13T04:11:25.994Z,48.10
2018-09-13T04:13:54.327Z,48.30
2018-09-13T04:16:22.638Z,48.20
2018-09-13T04:18:50.967Z,47.50
2018-09-13T04:21:19.198Z,47.20
2018-09-13T04:23:47.557Z,47.20
2018-09-13T04:26:15.747Z,47.40
2018-09-13T04:28:44.178Z,47.80
2018-09-13T04:31:12.457Z,47.90
2018-09-13T04:33:40.668Z,48.40
2018-09-13T04:36:10.071Z,48.60
2018-09-13T04:38:38.442Z,48.80
2018-09-13T04:41:07.900Z,49.20
2018-09-13T04:43:36.357Z,49.40
2018-09-13T04:46:04.582Z,49.70
2018-09-13T04:48:33.253Z,50.30
2018-09-13T04:51:01.874Z,50.60
2018-09-13T04:53:30.434Z,51.20
2018-09-13T04:55:58.752Z,51.10
2018-09-13T04:58:27.053Z,50.70
2018-09-13T05:00:55.410Z,51.20
2018-09-13T05:03:23.725Z,50.80
2018-09-13T05:05:52.107Z,50.50
2018-09-13T05:08:20.489Z,50.40
2018-09-13T05:10:48.740Z,50.00
2018-09-13T05:13:16.938Z,50.00
2018-09-13T05:15:45.231Z,49.60
2018-09-13T05:18:13.523Z,49.20
2018-09-13T05:20:41.847Z,49.20
2018-09-13T05:23:10.233Z,48.90
2018-09-13T05:25:38.470Z,48.30
2018-09-13T05:28:06.798Z,48.00
2018-09-13T05:30:35.273Z,48.50
2018-09-13T05:33:03.503Z,48.30
2018-09-13T05:35:31.808Z,48.30
2018-09-13T05:38:00.038Z,48.70
2018-09-13T05:40:28.757Z,49.20
2018-09-13T05:42:56.942Z,49.30
2018-09-13T05:45:25.118Z,49.40
2018-09-13T05:47:53.318Z,49.70
2018-09-13T05:50:21.734Z,50.20
2018-09-13T05:52:49.942Z,49.20
2018-09-13T05:55:18.221Z,49.70
2018-09-13T05:57:46.470Z,49.90
2018-09-13T06:00:14.984Z,49.20
2018-09-13T06:02:43.401Z,48.40
2018-09-13T06:05:11.620Z,48.40
2018-09-13T06:07:39.789Z,47.70
2018-09-13T06:10:08.034Z,47.70
2018-09-13T06:12:36.410Z,47.20
2018-09-13T06:15:04.948Z,46.50
2018-09-13T06:17:33.109Z,46.10
2018-09-13T06:20:01.317Z,45.80
2018-09-13T06:22:30.101Z,45.60
2018-09-13T06:24:58.431Z,45.00
2018-09-13T06:27:26.638Z,45.10
2018-09-13T06:29:54.877Z,45.30
2018-09-13T06:32:23.126Z,45.70
2018-09-13T06:34:51.514Z,45.30
2018-09-13T06:37:20.372Z,45.20
2018-09-13T06:39:48.593Z,44.60
2018-09-13T06:42:16.919Z,44.70
2018-09-13T06:44:45.186Z,44.50
2018-09-13T06:47:14.579Z,44.30
2018-09-13T06:49:43.433Z,44.00
2018-09-13T06:52:12.104Z,43.80
2018-09-13T06:54:40.310Z,44.10
2018-09-13T06:57:08.598Z,43.90
2018-09-13T06:59:36.867Z,43.80
2018-09-13T07:02:05.046Z,43.30
2018-09-13T07:04:33.269Z,43.10
2018-09-13T07:07:01.510Z,43.10
2018-09-13T07:09:29.774Z,42.30
2018-09-13T07:11:58.038Z,42.30
2018-09-13T07:14:26.210Z,42.20
2018-09-13T07:16:54.458Z,41.60
2018-09-13T07:19:22.704Z,42.00
2018-09-13T07:21:50.907Z,42.00
2018-09-13T07:24:19.115Z,42.00
2018-09-13T07:26:47.346Z,41.80
2018-09-13T07:29:15.691Z,41.10
2018-09-13T07:31:44.386Z,41.20
2018-09-13T07:34:12.588Z,41.70
2018-09-13T07:36:41.007Z,41.90
2018-09-13T07:39:10.985Z,42.50
2018-09-13T07:41:46.537Z,42.80
2018-09-13T07:44:14.786Z,42.90
2018-09-13T07:46:43.195Z,43.60
2018-09-13T07:49:11.782Z,43.70
2018-09-13T07:51:40.078Z,44.10
2018-09-13T07:54:08.418Z,43.90
2018-09-13T07:56:36.670Z,44.00
2018-09-13T07:59:05.738Z,44.90
2018-09-13T08:01:34.021Z,45.70
2018-09-13T08:04:02.333Z,46.00
2018-09-13T08:06:30.658Z,46.80
2018-09-13T08:08:58.928Z,47.50
2018-09-13T08:11:27.276Z,47.90
2018-09-13T08:13:55.490Z,48.30
2018-09-13T08:16:23.769Z,47.80
2018-09-13T08:18:52.167Z,48.00
2018-09-13T08:21:20.586Z,48.00
2018-09-13T08:23:48.824Z,47.70
2018-09-13T08:26:17.043Z,48.30
2018-09-13T08:28:45.238Z,48.20
2018-09-13T08:31:13.597Z,48.80
2018-09-13T08:33:41.812Z,48.70
2018-09-13T08:36:10.055Z,48.40
2018-09-13T08:38:38.262Z,47.60
2018-09-13T08:41:06.581Z,47.40
2018-09-13T08:43:35.057Z,47.40
2018-09-13T08:46:03.260Z,47.10
2018-09-13T08:48:31.494Z,46.60
2018-09-13T08:50:59.841Z,46.80
2018-09-13T08:53:29.062Z,45.90
2018-09-13T08:55:57.307Z,45.70
2018-09-13T08:58:25.525Z,45.70
2018-09-13T09:00:53.689Z,45.70
2018-09-13T09:03:22.020Z,45.10
2018-09-13T09:05:50.217Z,46.00
2018-09-13T09:08:18.604Z,45.70
2018-09-13T09:10:46.823Z,46.10
2018-09-13T09:13:15.109Z,46.30
2018-09-13T09:15:43.429Z,46.60
2018-09-13T09:18:11.628Z,46.40
2018-09-13T09:20:39.794Z,46.20
2018-09-13T09:23:08.365Z,46.80
2018-09-13T09:25:36.651Z,45.50
2018-09-13T09:28:04.934Z,45.00
2018-09-13T09:30:33.140Z,45.40
2018-09-13T09:33:01.343Z,45.30
2018-09-13T09:35:30.350Z,45.00
2018-09-13T09:37:58.686Z,44.60
2018-09-13T09:40:27.013Z,44.80
2018-09-13T09:42:55.216Z,45.80
2018-09-13T09:45:23.518Z,45.70
2018-09-13T09:47:52.564Z,45.60
2018-09-13T09:50:21.641Z,45.80
2018-09-13T09:52:49.998Z,45.40
2018-09-13T09:55:22.195Z,45.40
2018-09-13T09:57:50.672Z,45.80
2018-09-13T10:00:23.071Z,46.20
2018-09-13T10:02:51.345Z,45.80
2018-09-13T10:05:19.542Z,46.50
2018-09-13T10:07:47.790Z,46.10
2018-09-13T10:10:16.055Z,45.80
2018-09-13T10:12:44.622Z,45.60
2018-09-13T10:15:18.185Z,44.90
2018-09-13T10:17:51.622Z,44.70
2018-09-13T10:21:26.680Z,43.80
2018-09-13T10:24:00.362Z,43.30
2018-09-13T10:26:34.519Z,42.50
2018-09-13T10:29:07.660Z,42.10
2018-09-13T10:31:41.271Z,42.40
2018-09-13T10:34:15.093Z,42.30
2018-09-13T10:36:48.706Z,42.50
2018-09-13T10:39:22.291Z,42.40
2018-09-13T10:41:56.005Z,41.80
2018-09-13T10:44:29.720Z,41.50
2018-09-13T10:47:03.175Z,40.10
2018-09-13T10:49:36.985Z,39.10
2018-09-13T10:52:09.545Z,38.50
2018-09-13T10:54:41.281Z,36.20
2018-09-13T10:57:14.875Z,35.50
2018-09-13T10:59:43.806Z,34.40
2018-09-13T11:02:12.258Z,35.30
2018-09-13T11:04:40.485Z,35.80
2018-09-13T11:07:10.142Z,36.20
2018-09-13T11:09:38.522Z,36.00
2018-09-13T11:12:07.877Z,36.40
2018-09-13T11:14:51.235Z,36.80
2018-09-13T11:17:20.709Z,37.10
2018-09-13T11:19:49.072Z,36.30
2018-09-13T11:22:17.518Z,36.70
2018-09-13T11:24:47.086Z,37.50
2018-09-13T11:27:15.634Z,37.90
2018-09-13T11:29:44.318Z,37.90
2018-09-13T11:32:13.058Z,36.80
2018-09-13T11:34:41.935Z,36.00
2018-09-13T11:37:10.125Z,35.70
2018-09-13T11:39:38.410Z,33.80
2018-09-13T11:42:07.348Z,31.50
2018-09-13T11:44:35.809Z,29.30
2018-09-13T11:47:04.098Z,28.50
2018-09-13T11:49:32.381Z,28.60
2018-09-13T11:52:00.593Z,28.90
2018-09-13T11:54:28.886Z,28.40
2018-09-13T11:56:57.162Z,28.70
2018-09-13T11:59:25.390Z,28.70
2018-09-13T12:01:53.705Z,29.00
2018-09-13T12:04:21.950Z,29.30
2018-09-13T12:06:50.227Z,30.00
2018-09-13T12:09:18.581Z,30.10
2018-09-13T12:11:46.770Z,31.00
2018-09-13T12:14:15.255Z,31.50
2018-09-13T12:16:43.567Z,31.70
2018-09-13T12:19:11.916Z,31.90
2018-09-13T12:21:40.489Z,31.90
2018-09-13T12:24:08.690Z,31.40
2018-09-13T12:26:37.056Z,28.90
2018-09-13T12:29:05.604Z,28.30
2018-09-13T12:31:33.814Z,27.40
2018-09-13T12:34:02.116Z,26.60
2018-09-13T12:36:30.350Z,26.70
2018-09-13T12:38:59.290Z,26.10
2018-09-13T12:41:27.600Z,26.00
2018-09-13T12:43:55.885Z,26.60
2018-09-13T12:46:24.112Z,27.00
2018-09-13T12:48:52.737Z,27.30
2018-09-13T12:51:21.523Z,28.20
2018-09-13T12:53:49.815Z,28.20
2018-09-13T12:56:18.357Z,28.50
2018-09-13T12:58:46.651Z,27.80
2018-09-13T13:01:15.125Z,27.90
2018-09-13T13:03:43.483Z,27.90
2018-09-13T13:06:11.703Z,28.30
2018-09-13T13:08:40.047Z,28.50
2018-09-13T13:11:08.340Z,29.00
2018-09-13T13:13:37.021Z,29.00
2018-09-13T13:16:05.297Z,29.20
2018-09-13T13:18:33.532Z,29.50
2018-09-13T13:21:01.782Z,29.40
2018-09-13T13:23:30.001Z,29.40
2018-09-13T13:25:58.341Z,29.50
2018-09-13T13:28:26.546Z,30.00
2018-09-13T13:30:54.778Z,30.00
2018-09-13T13:33:23.031Z,29.30
2018-09-13T13:35:51.728Z,28.30
2018-09-13T13:38:20.206Z,27.50
2018-09-13T13:40:48.438Z,27.70
2018-09-13T13:43:16.658Z,27.70
2018-09-13T13:45:45.261Z,27.40
2018-09-13T13:48:13.588Z,27.50
2018-09-13T13:50:42.331Z,27.50
2018-09-13T13:53:10.555Z,27.40
2018-09-13T13:55:38.831Z,27.00
2018-09-13T13:58:07.157Z,26.90
2018-09-13T14:00:35.432Z,27.20
2018-09-13T14:03:03.722Z,27.00
2018-09-13T14:05:31.951Z,27.10
2018-09-13T14:08:00.326Z,27.20
2018-09-13T14:10:28.526Z,27.10
2018-09-13T14:12:56.827Z,27.70
2018-09-13T14:15:25.059Z,27.80
2018-09-13T14:17:53.255Z,27.80
2018-09-13T14:20:22.118Z,28.10
2018-09-13T14:22:51.033Z,28.20
2018-09-13T14:25:19.289Z,28.40
2018-09-13T14:27:47.569Z,28.70
2018-09-13T14:30:15.775Z,29.10
2018-09-13T14:32:44.292Z,28.90
2018-09-13T14:35:12.552Z,28.90
2018-09-13T14:37:40.769Z,29.50
2018-09-13T14:40:09.077Z,29.40
2018-09-13T14:42:37.438Z,29.40
2018-09-13T14:45:05.757Z,29.60
2018-09-13T14:47:34.020Z,29.60
2018-09-13T14:50:02.224Z,29.60
2018-09-13T14:52:30.472Z,29.20
2018-09-13T14:54:58.712Z,29.40
2018-09-13T14:57:27.005Z,29.40
2018-09-13T14:59:55.202Z,28.60
2018-09-13T15:02:23.427Z,29.10
2018-09-13T15:04:51.946Z,28.80
2018-09-13T15:07:20.270Z,28.90
2018-09-13T15:09:48.413Z,29.20
2018-09-13T15:12:16.639Z,29.40
2018-09-13T15:14:45.020Z,29.70
2018-09-13T15:17:13.264Z,30.10
2018-09-13T15:19:41.508Z,30.40
2018-09-13T15:22:09.725Z,30.40
2018-09-13T15:24:38.062Z,30.80
2018-09-13T15:27:06.304Z,30.70
2018-09-13T15:29:34.493Z,30.70
2018-09-13T15:32:02.751Z,29.90
2018-09-13T15:34:30.963Z,29.60
2018-09-13T15:36:59.352Z,29.60
2018-09-13T15:39:27.646Z,29.30
2018-09-13T15:41:55.889Z,29.10
2018-09-13T15:44:24.140Z,29.20
2018-09-13T15:46:52.554Z,29.60
2018-09-13T15:49:21.005Z,30.00
2018-09-13T15:51:49.367Z,30.20
2018-09-13T15:54:17.581Z,30.80
2018-09-13T15:56:46.184Z,30.50
2018-09-13T15:59:14.406Z,31.20
2018-09-13T16:01:42.815Z,31.30
2018-09-13T16:04:11.003Z,31.30
2018-09-13T16:06:39.189Z,31.50
2018-09-13T16:09:08.054Z,31.60
2018-09-13T16:11:36.436Z,31.50
2018-09-13T16:14:04.641Z,32.50
2018-09-13T16:16:33.048Z,32.50
2018-09-13T16:19:01.530Z,32.70
2018-09-13T16:21:29.926Z,32.90
2018-09-13T16:23:58.283Z,33.10
2018-09-13T16:29:29.942Z,32.80
2018-09-13T16:31:58.277Z,32.80
2018-09-13T16:34:27.640Z,33.20
2018-09-13T16:37:07.950Z,33.60
2018-09-13T16:39:41.614Z,34.20
2018-09-13T16:42:15.277Z,34.30
2018-09-13T16:44:51.314Z,34.60
2018-09-13T16:47:30.825Z,34.50
2018-09-13T16:50:00.234Z,34.50
2018-09-13T16:52:29.438Z,34.20
2018-09-13T16:54:57.702Z,34.40
2018-09-13T16:57:25.988Z,34.70
2018-09-13T16:59:54.224Z,34.50
2018-09-13T17:02:22.661Z,34.30
2018-09-13T17:09:18.508Z,35.00
2018-09-13T17:11:46.830Z,34.70
2018-09-13T17:14:27.450Z,34.60
2018-09-13T17:16:55.720Z,35.50
2018-09-13T17:19:24.181Z,35.50
2018-09-13T17:21:52.685Z,35.50
2018-09-13T17:24:21.626Z,35.50
2018-09-13T17:26:50.021Z,35.50
2018-09-13T17:29:18.328Z,35.70
2018-09-13T17:31:46.770Z,36.50
2018-09-13T17:34:15.221Z,35.80
2018-09-13T17:36:43.572Z,35.50
2018-09-13T17:39:13.132Z,35.80
2018-09-13T17:41:42.057Z,36.00
2018-09-13T17:44:10.747Z,36.00
2018-09-13T17:46:39.795Z,36.10
2018-09-13T17:49:08.240Z,36.50
2018-09-13T17:51:37.523Z,36.70
2018-09-13T17:54:06.925Z,36.70
2018-09-13T17:56:35.184Z,36.80
2018-09-13T17:59:05.706Z,37.00
2018-09-13T18:01:34.045Z,36.60
2018-09-13T18:04:02.359Z,36.80
2018-09-13T18:06:30.654Z,36.40
2018-09-13T18:08:59.032Z,36.70
2018-09-13T18:11:27.451Z,37.50
2018-09-13T18:13:56.360Z,37.00
2018-09-13T18:16:24.812Z,37.30
2018-09-13T18:18:53.133Z,37.50
2018-09-13T18:21:22.100Z,37.80
2018-09-13T18:23:50.403Z,37.90
2018-09-13T18:26:18.669Z,38.40
2018-09-13T18:28:47.048Z,38.30
2018-09-13T18:31:15.369Z,38.10
2018-09-13T18:33:43.621Z,38.30
2018-09-13T18:36:11.948Z,38.40
2018-09-13T18:38:40.840Z,38.40
2018-09-13T18:41:09.500Z,38.40
2018-09-13T18:43:37.977Z,38.50
2018-09-13T18:46:06.317Z,39.20
2018-09-13T18:48:35.392Z,39.40
2018-09-13T18:51:03.667Z,39.70
2018-09-13T18:53:32.274Z,39.90
2018-09-13T18:56:00.724Z,40.00
2018-09-13T18:58:29.460Z,40.10
2018-09-13T19:00:57.934Z,40.10
2018-09-13T19:03:26.277Z,40.30
2018-09-13T19:05:54.738Z,40.50
2018-09-13T19:08:23.024Z,40.60
2018-09-13T19:10:51.492Z,40.60
2018-09-13T19:13:19.858Z,41.00
2018-09-13T19:15:48.276Z,41.30
2018-09-13T19:18:16.629Z,41.20
2018-09-13T19:20:44.975Z,41.40
2018-09-13T19:23:13.295Z,41.60
2018-09-13T19:25:41.640Z,41.90
2018-09-13T19:28:10.045Z,42.40
2018-09-13T19:30:38.389Z,42.60
2018-09-13T19:33:06.822Z,43.30
2018-09-13T19:35:35.155Z,43.80
2018-09-13T19:38:03.539Z,43.90
2018-09-13T19:40:32.107Z,43.70
2018-09-13T19:43:00.710Z,44.60
2018-09-13T19:45:29.084Z,44.80
2018-09-13T19:47:57.469Z,45.50
2018-09-13T19:50:25.875Z,46.00
2018-09-13T19:52:54.248Z,46.20
2018-09-13T19:55:22.650Z,46.80
2018-09-13T19:57:51.127Z,47.30
2018-09-13T20:00:19.775Z,47.70
2018-09-13T20:02:48.474Z,47.80
2018-09-13T20:05:18.010Z,48.10
2018-09-13T20:07:46.758Z,48.40
2018-09-13T20:10:15.716Z,48.90
2018-09-13T20:12:44.220Z,48.80
2018-09-13T20:15:12.754Z,48.90
2018-09-13T20:17:41.269Z,49.40
2018-09-13T20:20:09.870Z,49.60
2018-09-13T20:22:38.170Z,49.90
2018-09-13T20:25:06.811Z,50.30
2018-09-13T20:27:35.190Z,50.30
2018-09-13T20:30:03.438Z,50.40
2018-09-13T20:32:31.741Z,50.40
2018-09-13T20:35:00.120Z,50.20
2018-09-13T20:37:28.388Z,50.30
2018-09-13T20:39:56.634Z,50.50
2018-09-13T20:42:24.887Z,50.50
2018-09-13T20:44:53.170Z,50.50
2018-09-13T20:47:21.559Z,50.20
2018-09-13T20:49:49.820Z,50.00
2018-09-13T20:52:18.093Z,49.80
2018-09-13T20:54:46.351Z,50.10
2018-09-13T20:57:14.825Z,50.80
2018-09-13T20:59:43.344Z,50.50
2018-09-13T21:02:11.714Z,50.20
2018-09-13T21:04:39.944Z,50.00
2018-09-13T21:07:08.231Z,50.30
2018-09-13T21:09:36.585Z,50.10
2018-09-13T21:12:04.854Z,50.40
2018-09-13T21:14:33.070Z,50.40
2018-09-13T21:17:01.611Z,50.40
2018-09-13T21:19:29.954Z,50.70
2018-09-13T21:21:58.581Z,50.80
2018-09-13T21:24:26.891Z,51.20
2018-09-13T21:26:55.182Z,51.40
2018-09-13T21:29:23.989Z,51.80
2018-09-13T21:31:52.268Z,51.50
2018-09-13T21:34:20.807Z,51.40
2018-09-13T21:36:49.234Z,51.60
2018-09-13T21:39:17.506Z,52.10
2018-09-13T21:41:46.462Z,52.10
2018-09-13T21:44:14.950Z,52.00
2018-09-13T21:46:43.257Z,52.70
2018-09-13T21:49:11.665Z,52.70
2018-09-13T21:51:39.998Z,52.60
2018-09-13T21:54:08.248Z,52.50
2018-09-13T21:56:36.597Z,52.40
2018-09-13T21:59:05.416Z,52.10
2018-09-13T22:01:33.719Z,52.00
2018-09-13T22:04:02.403Z,52.00
2018-09-13T22:06:31.160Z,52.00
2018-09-13T22:08:59.583Z,52.50
2018-09-13T22:11:28.079Z,52.70
2018-09-13T22:13:56.674Z,52.50
2018-09-13T22:16:24.994Z,52.30
2018-09-13T22:18:53.209Z,52.10
2018-09-13T22:21:22.215Z,52.20
2018-09-13T22:23:50.431Z,52.40
2018-09-13T22:26:18.728Z,52.50
2018-09-13T22:28:47.057Z,52.40
2018-09-13T22:31:15.348Z,53.00
2018-09-13T22:33:43.717Z,53.10
2018-09-13T22:36:11.975Z,53.10
2018-09-13T22:38:40.264Z,53.10
2018-09-13T22:41:08.580Z,53.50
2018-09-13T22:43:42.433Z,53.40
2018-09-13T22:46:10.735Z,53.90
2018-09-13T22:48:39.042Z,53.80
2018-09-13T22:51:07.367Z,53.20
2018-09-13T22:53:35.669Z,53.20
2018-09-13T22:56:03.873Z,53.40
2018-09-13T22:58:32.157Z,53.40
2018-09-13T23:01:00.450Z,53.50
2018-09-13T23:03:28.799Z,53.50
2018-09-13T23:05:57.065Z,53.00
2018-09-13T23:08:25.466Z,52.90
2018-09-13T23:10:53.735Z,53.10
2018-09-13T23:13:22.115Z,53.20
2018-09-13T23:15:50.422Z,52.90
2018-09-13T23:18:18.656Z,53.10
2018-09-13T23:20:46.907Z,53.30
2018-09-13T23:23:15.209Z,53.10
2018-09-13T23:25:43.473Z,52.80
2018-09-13T23:28:11.928Z,52.80
2018-09-13T23:30:40.161Z,52.80
2018-09-13T23:33:09.602Z,52.90
2018-09-13T23:35:38.029Z,53.10
2018-09-13T23:38:06.338Z,53.00
2018-09-13T23:40:34.581Z,52.60
2018-09-13T23:43:02.790Z,52.80
2018-09-13T23:45:31.307Z,52.80
2018-09-13T23:48:00.036Z,53.20
2018-09-13T23:50:28.664Z,52.90
2018-09-13T23:52:56.972Z,52.30
2018-09-13T23:55:25.348Z,52.80
2018-09-13T23:57:53.622Z,52.90
